sensor_id;sensor_type;location;lat;lon;timestamp;pressure;altitude;pressure_sealevel;temperature;humidity
3142;BME280;1581;51.568;6.998;2023-04-25T00:01:37;100234.41;;;7.98;100.00
3142;BME280;1581;51.568;6.998;2023-04-25T00:04:05;100230.47;;;7.79;100.00
3142;BME280;1581;51.568;6.998;2023-04-25T00:06:33;100232.56;;;7.98;100.00
3142;BME280;1581;51.568;6.998;2023-04-25T00:09:04;100242.00;;;8.15;100.00
3142;BME280;1581;51.568;6.998;2023-04-25T00:11:33;100233.84;;;8.17;100.00
3142;BME280;1581;51.568;6.998;2023-04-25T00:14:02;100227.25;;;8.13;100.00
3142;BME280;1581;51.568;6.998;2023-04-25T00:16:30;100233.69;;;8.18;100.00
3142;BME280;1581;51.568;6.998;2023-04-25T00:19:01;100232.94;;;8.24;100.00
3142;BME280;1581;51.568;6.998;2023-04-25T00:21:29;100246.00;;;8.26;100.00
3142;BME280;1581;51.568;6.998;2023-04-25T00:23:58;100238.34;;;8.16;100.00
3142;BME280;1581;51.568;6.998;2023-04-25T00:26:28;100247.09;;;8.31;100.00
3142;BME280;1581;51.568;6.998;2023-04-25T00:28:55;100243.06;;;8.35;100.00
3142;BME280;1581;51.568;6.998;2023-04-25T00:31:24;100239.09;;;8.46;100.00
3142;BME280;1581;51.568;6.998;2023-04-25T00:33:52;100238.72;;;8.49;100.00
3142;BME280;1581;51.568;6.998;2023-04-25T00:36:19;100243.81;;;8.29;100.00
3142;BME280;1581;51.568;6.998;2023-04-25T00:38:48;100240.34;;;8.00;100.00
3142;BME280;1581;51.568;6.998;2023-04-25T00:41:16;100247.94;;;8.32;100.00
3142;BME280;1581;51.568;6.998;2023-04-25T00:43:46;100237.88;;;8.13;100.00
3142;BME280;1581;51.568;6.998;2023-04-25T00:46:15;100238.69;;;8.28;100.00
3142;BME280;1581;51.568;6.998;2023-04-25T00:48:43;100241.59;;;8.04;100.00
3142;BME280;1581;51.568;6.998;2023-04-25T00:51:15;100242.72;;;8.24;100.00
3142;BME280;1581;51.568;6.998;2023-04-25T00:53:44;100239.34;;;8.15;100.00
3142;BME280;1581;51.568;6.998;2023-04-25T00:56:12;100237.19;;;8.40;100.00
3142;BME280;1581;51.568;6.998;2023-04-25T00:58:41;100243.91;;;8.21;100.00
3142;BME280;1581;51.568;6.998;2023-04-25T01:01:12;100249.66;;;8.10;100.00
3142;BME280;1581;51.568;6.998;2023-04-25T01:03:40;100251.03;;;8.06;100.00
3142;BME280;1581;51.568;6.998;2023-04-25T01:06:09;100254.16;;;8.10;100.00
3142;BME280;1581;51.568;6.998;2023-04-25T01:08:38;100252.72;;;8.22;100.00
3142;BME280;1581;51.568;6.998;2023-04-25T01:11:07;100255.25;;;8.30;100.00
3142;BME280;1581;51.568;6.998;2023-04-25T01:13:36;100254.91;;;8.18;100.00
3142;BME280;1581;51.568;6.998;2023-04-25T01:16:04;100248.75;;;7.89;100.00
3142;BME280;1581;51.568;6.998;2023-04-25T01:18:34;100246.00;;;8.11;100.00
3142;BME280;1581;51.568;6.998;2023-04-25T01:21:08;100237.97;;;8.19;100.00
3142;BME280;1581;51.568;6.998;2023-04-25T01:23:36;100249.75;;;8.02;100.00
3142;BME280;1581;51.568;6.998;2023-04-25T01:26:05;100254.97;;;8.10;100.00
3142;BME280;1581;51.568;6.998;2023-04-25T01:28:34;100252.50;;;7.94;100.00
3142;BME280;1581;51.568;6.998;2023-04-25T01:31:03;100254.50;;;8.07;100.00
3142;BME280;1581;51.568;6.998;2023-04-25T01:33:32;100254.50;;;7.64;100.00
3142;BME280;1581;51.568;6.998;2023-04-25T01:36:00;100260.13;;;7.83;100.00
3142;BME280;1581;51.568;6.998;2023-04-25T01:38:29;100262.84;;;7.75;100.00
3142;BME280;1581;51.568;6.998;2023-04-25T01:40:58;100264.00;;;7.58;100.00
3142;BME280;1581;51.568;6.998;2023-04-25T01:43:26;100261.34;;;7.58;100.00
3142;BME280;1581;51.568;6.998;2023-04-25T01:45:54;100262.28;;;7.79;100.00
3142;BME280;1581;51.568;6.998;2023-04-25T01:48:23;100265.56;;;7.67;100.00
3142;BME280;1581;51.568;6.998;2023-04-25T01:50:51;100269.63;;;7.77;100.00
3142;BME280;1581;51.568;6.998;2023-04-25T01:53:19;100263.22;;;7.86;100.00
3142;BME280;1581;51.568;6.998;2023-04-25T01:55:48;100273.38;;;7.83;100.00
3142;BME280;1581;51.568;6.998;2023-04-25T01:58:17;100276.94;;;7.90;100.00
3142;BME280;1581;51.568;6.998;2023-04-25T02:00:46;100281.94;;;7.85;100.00
3142;BME280;1581;51.568;6.998;2023-04-25T02:03:14;100281.69;;;7.80;100.00
3142;BME280;1581;51.568;6.998;2023-04-25T02:05:42;100286.00;;;8.10;100.00
3142;BME280;1581;51.568;6.998;2023-04-25T02:08:10;100282.88;;;7.92;100.00
3142;BME280;1581;51.568;6.998;2023-04-25T02:10:39;100283.59;;;8.00;100.00
3142;BME280;1581;51.568;6.998;2023-04-25T02:13:08;100291.09;;;7.97;100.00
3142;BME280;1581;51.568;6.998;2023-04-25T02:15:36;100289.66;;;7.94;100.00
3142;BME280;1581;51.568;6.998;2023-04-25T02:18:05;100296.41;;;7.97;100.00
3142;BME280;1581;51.568;6.998;2023-04-25T02:20:34;100300.63;;;7.91;100.00
3142;BME280;1581;51.568;6.998;2023-04-25T02:23:02;100294.88;;;8.02;100.00
3142;BME280;1581;51.568;6.998;2023-04-25T02:25:30;100293.75;;;7.82;100.00
3142;BME280;1581;51.568;6.998;2023-04-25T02:27:58;100303.81;;;8.01;100.00
3142;BME280;1581;51.568;6.998;2023-04-25T02:30:27;100307.88;;;7.97;100.00
3142;BME280;1581;51.568;6.998;2023-04-25T02:32:55;100304.91;;;7.92;100.00
3142;BME280;1581;51.568;6.998;2023-04-25T02:35:23;100306.94;;;7.90;100.00
3142;BME280;1581;51.568;6.998;2023-04-25T02:37:51;100306.47;;;8.01;100.00
3142;BME280;1581;51.568;6.998;2023-04-25T02:40:18;100308.75;;;7.75;100.00
3142;BME280;1581;51.568;6.998;2023-04-25T02:42:47;100304.47;;;7.89;100.00
3142;BME280;1581;51.568;6.998;2023-04-25T02:45:15;100306.22;;;8.11;100.00
3142;BME280;1581;51.568;6.998;2023-04-25T02:47:45;100311.34;;;8.12;100.00
3142;BME280;1581;51.568;6.998;2023-04-25T02:50:13;100314.72;;;8.06;100.00
3142;BME280;1581;51.568;6.998;2023-04-25T02:52:41;100309.81;;;8.18;100.00
3142;BME280;1581;51.568;6.998;2023-04-25T02:55:09;100306.31;;;8.03;100.00
3142;BME280;1581;51.568;6.998;2023-04-25T02:57:38;100305.75;;;8.07;100.00
3142;BME280;1581;51.568;6.998;2023-04-25T03:00:07;100311.63;;;8.03;100.00
3142;BME280;1581;51.568;6.998;2023-04-25T03:02:37;100309.03;;;7.95;100.00
3142;BME280;1581;51.568;6.998;2023-04-25T03:05:07;100300.47;;;8.07;100.00
3142;BME280;1581;51.568;6.998;2023-04-25T03:07:35;100307.06;;;8.26;100.00
3142;BME280;1581;51.568;6.998;2023-04-25T03:10:04;100313.16;;;7.83;100.00
3142;BME280;1581;51.568;6.998;2023-04-25T03:12:32;100312.63;;;8.02;100.00
3142;BME280;1581;51.568;6.998;2023-04-25T03:15:00;100318.75;;;8.02;100.00
3142;BME280;1581;51.568;6.998;2023-04-25T03:17:28;100316.38;;;7.78;100.00
3142;BME280;1581;51.568;6.998;2023-04-25T03:19:57;100323.59;;;7.48;100.00
3142;BME280;1581;51.568;6.998;2023-04-25T03:22:26;100319.56;;;7.88;100.00
3142;BME280;1581;51.568;6.998;2023-04-25T03:24:54;100318.19;;;8.07;100.00
3142;BME280;1581;51.568;6.998;2023-04-25T03:27:22;100321.94;;;7.98;100.00
3142;BME280;1581;51.568;6.998;2023-04-25T03:29:50;100318.94;;;7.86;100.00
3142;BME280;1581;51.568;6.998;2023-04-25T03:32:18;100332.88;;;7.80;100.00
3142;BME280;1581;51.568;6.998;2023-04-25T03:34:46;100325.69;;;7.89;100.00
3142;BME280;1581;51.568;6.998;2023-04-25T03:37:14;100327.00;;;8.07;100.00
3142;BME280;1581;51.568;6.998;2023-04-25T03:39:44;100327.06;;;8.14;100.00
3142;BME280;1581;51.568;6.998;2023-04-25T03:42:12;100329.03;;;8.20;100.00
3142;BME280;1581;51.568;6.998;2023-04-25T03:44:40;100333.16;;;8.22;100.00
3142;BME280;1581;51.568;6.998;2023-04-25T03:47:08;100342.09;;;8.21;100.00
3142;BME280;1581;51.568;6.998;2023-04-25T03:49:36;100341.81;;;8.02;100.00
3142;BME280;1581;51.568;6.998;2023-04-25T03:52:04;100352.84;;;7.76;100.00
3142;BME280;1581;51.568;6.998;2023-04-25T03:54:32;100361.56;;;7.63;100.00
3142;BME280;1581;51.568;6.998;2023-04-25T03:57:02;100359.31;;;7.74;100.00
3142;BME280;1581;51.568;6.998;2023-04-25T03:59:33;100356.84;;;7.72;100.00
3142;BME280;1581;51.568;6.998;2023-04-25T04:02:01;100347.16;;;7.79;100.00
3142;BME280;1581;51.568;6.998;2023-04-25T04:04:30;100351.34;;;7.74;100.00
3142;BME280;1581;51.568;6.998;2023-04-25T04:06:59;100345.78;;;7.69;100.00
3142;BME280;1581;51.568;6.998;2023-04-25T04:09:27;100348.84;;;7.58;100.00
3142;BME280;1581;51.568;6.998;2023-04-25T04:11:54;100349.78;;;7.65;100.00
3142;BME280;1581;51.568;6.998;2023-04-25T04:14:24;100350.78;;;7.64;100.00
3142;BME280;1581;51.568;6.998;2023-04-25T04:16:51;100347.22;;;7.71;100.00
3142;BME280;1581;51.568;6.998;2023-04-25T04:19:19;100356.38;;;7.69;100.00
3142;BME280;1581;51.568;6.998;2023-04-25T04:21:47;100354.91;;;7.44;100.00
3142;BME280;1581;51.568;6.998;2023-04-25T04:24:15;100354.69;;;7.54;100.00
3142;BME280;1581;51.568;6.998;2023-04-25T04:26:44;100363.31;;;7.56;100.00
3142;BME280;1581;51.568;6.998;2023-04-25T04:29:12;100370.19;;;7.65;100.00
3142;BME280;1581;51.568;6.998;2023-04-25T04:31:48;100374.63;;;7.64;100.00
3142;BME280;1581;51.568;6.998;2023-04-25T04:34:17;100372.00;;;7.64;100.00
3142;BME280;1581;51.568;6.998;2023-04-25T04:36:45;100374.06;;;7.54;100.00
3142;BME280;1581;51.568;6.998;2023-04-25T04:39:13;100374.13;;;7.46;100.00
3142;BME280;1581;51.568;6.998;2023-04-25T04:41:41;100372.94;;;7.49;100.00
3142;BME280;1581;51.568;6.998;2023-04-25T04:44:09;100380.56;;;7.52;100.00
3142;BME280;1581;51.568;6.998;2023-04-25T04:46:36;100372.81;;;7.65;100.00
3142;BME280;1581;51.568;6.998;2023-04-25T04:49:09;100372.53;;;7.60;100.00
3142;BME280;1581;51.568;6.998;2023-04-25T04:51:37;100376.94;;;7.67;100.00
3142;BME280;1581;51.568;6.998;2023-04-25T04:54:05;100385.97;;;7.58;100.00
3142;BME280;1581;51.568;6.998;2023-04-25T04:56:33;100384.47;;;7.78;100.00
3142;BME280;1581;51.568;6.998;2023-04-25T04:59:01;100394.50;;;7.68;100.00
3142;BME280;1581;51.568;6.998;2023-04-25T05:01:29;100395.97;;;7.70;100.00
3142;BME280;1581;51.568;6.998;2023-04-25T05:03:57;100383.97;;;7.97;100.00
3142;BME280;1581;51.568;6.998;2023-04-25T05:06:28;100399.34;;;8.01;100.00
3142;BME280;1581;51.568;6.998;2023-04-25T05:08:56;100397.78;;;8.07;100.00
3142;BME280;1581;51.568;6.998;2023-04-25T05:11:24;100406.56;;;7.93;100.00
3142;BME280;1581;51.568;6.998;2023-04-25T05:13:53;100404.22;;;7.75;100.00
3142;BME280;1581;51.568;6.998;2023-04-25T05:16:21;100407.38;;;7.93;100.00
3142;BME280;1581;51.568;6.998;2023-04-25T05:18:49;100408.59;;;7.68;100.00
3142;BME280;1581;51.568;6.998;2023-04-25T05:21:17;100409.47;;;7.83;100.00
3142;BME280;1581;51.568;6.998;2023-04-25T05:23:46;100411.41;;;8.04;100.00
3142;BME280;1581;51.568;6.998;2023-04-25T05:26:14;100422.56;;;7.99;100.00
3142;BME280;1581;51.568;6.998;2023-04-25T05:28:41;100422.03;;;8.04;100.00
3142;BME280;1581;51.568;6.998;2023-04-25T05:31:10;100427.28;;;8.12;100.00
3142;BME280;1581;51.568;6.998;2023-04-25T05:33:38;100427.50;;;8.25;100.00
3142;BME280;1581;51.568;6.998;2023-04-25T05:36:07;100426.03;;;8.22;100.00
3142;BME280;1581;51.568;6.998;2023-04-25T05:38:36;100436.84;;;8.21;100.00
3142;BME280;1581;51.568;6.998;2023-04-25T05:41:05;100428.00;;;8.43;100.00
3142;BME280;1581;51.568;6.998;2023-04-25T05:43:33;100437.53;;;8.52;100.00
3142;BME280;1581;51.568;6.998;2023-04-25T05:46:01;100445.06;;;8.26;100.00
3142;BME280;1581;51.568;6.998;2023-04-25T05:48:29;100437.97;;;8.41;100.00
3142;BME280;1581;51.568;6.998;2023-04-25T05:50:56;100446.84;;;8.48;100.00
3142;BME280;1581;51.568;6.998;2023-04-25T05:53:24;100447.59;;;8.56;100.00
3142;BME280;1581;51.568;6.998;2023-04-25T05:55:52;100455.00;;;8.32;100.00
3142;BME280;1581;51.568;6.998;2023-04-25T05:58:21;100464.41;;;7.97;100.00
3142;BME280;1581;51.568;6.998;2023-04-25T06:00:49;100470.03;;;8.17;100.00
3142;BME280;1581;51.568;6.998;2023-04-25T06:03:17;100483.44;;;8.38;100.00
3142;BME280;1581;51.568;6.998;2023-04-25T06:05:45;100475.94;;;8.04;100.00
3142;BME280;1581;51.568;6.998;2023-04-25T06:08:13;100479.00;;;8.16;100.00
3142;BME280;1581;51.568;6.998;2023-04-25T06:10:41;100480.97;;;8.14;100.00
3142;BME280;1581;51.568;6.998;2023-04-25T06:13:09;100482.88;;;8.28;100.00
3142;BME280;1581;51.568;6.998;2023-04-25T06:15:39;100485.88;;;8.61;100.00
3142;BME280;1581;51.568;6.998;2023-04-25T06:18:07;100484.59;;;8.72;100.00
3142;BME280;1581;51.568;6.998;2023-04-25T06:20:35;100490.47;;;8.16;100.00
3142;BME280;1581;51.568;6.998;2023-04-25T06:23:04;100495.63;;;8.47;100.00
3142;BME280;1581;51.568;6.998;2023-04-25T06:25:32;100494.75;;;8.54;100.00
3142;BME280;1581;51.568;6.998;2023-04-25T06:28:01;100498.13;;;8.48;100.00
3142;BME280;1581;51.568;6.998;2023-04-25T06:30:29;100491.09;;;8.69;100.00
3142;BME280;1581;51.568;6.998;2023-04-25T06:32:58;100497.00;;;8.28;100.00
3142;BME280;1581;51.568;6.998;2023-04-25T06:35:26;100496.81;;;8.30;100.00
3142;BME280;1581;51.568;6.998;2023-04-25T06:37:55;100495.28;;;7.90;100.00
3142;BME280;1581;51.568;6.998;2023-04-25T06:40:24;100492.97;;;8.10;100.00
3142;BME280;1581;51.568;6.998;2023-04-25T06:42:52;100495.81;;;8.08;100.00
3142;BME280;1581;51.568;6.998;2023-04-25T06:45:20;100496.69;;;8.23;100.00
3142;BME280;1581;51.568;6.998;2023-04-25T06:47:48;100500.38;;;8.37;100.00
3142;BME280;1581;51.568;6.998;2023-04-25T06:50:18;100502.72;;;8.54;100.00
3142;BME280;1581;51.568;6.998;2023-04-25T06:52:46;100499.53;;;8.87;100.00
3142;BME280;1581;51.568;6.998;2023-04-25T06:55:14;100505.53;;;9.25;100.00
3142;BME280;1581;51.568;6.998;2023-04-25T06:57:42;100508.03;;;9.12;100.00
3142;BME280;1581;51.568;6.998;2023-04-25T07:00:11;100507.78;;;9.07;100.00
3142;BME280;1581;51.568;6.998;2023-04-25T07:02:39;100509.63;;;9.41;100.00
3142;BME280;1581;51.568;6.998;2023-04-25T07:05:09;100502.84;;;9.74;100.00
3142;BME280;1581;51.568;6.998;2023-04-25T07:07:38;100509.00;;;9.96;100.00
3142;BME280;1581;51.568;6.998;2023-04-25T07:10:08;100514.06;;;10.05;100.00
3142;BME280;1581;51.568;6.998;2023-04-25T07:12:36;100513.22;;;10.05;100.00
3142;BME280;1581;51.568;6.998;2023-04-25T07:15:05;100510.38;;;10.06;100.00
3142;BME280;1581;51.568;6.998;2023-04-25T07:17:36;100523.53;;;9.93;100.00
3142;BME280;1581;51.568;6.998;2023-04-25T07:20:06;100530.41;;;9.67;100.00
3142;BME280;1581;51.568;6.998;2023-04-25T07:22:37;100528.53;;;9.82;100.00
3142;BME280;1581;51.568;6.998;2023-04-25T07:25:06;100536.16;;;10.06;100.00
3142;BME280;1581;51.568;6.998;2023-04-25T07:27:35;100535.34;;;9.70;100.00
3142;BME280;1581;51.568;6.998;2023-04-25T07:30:04;100544.88;;;9.79;100.00
3142;BME280;1581;51.568;6.998;2023-04-25T07:32:33;100538.44;;;10.09;100.00
3142;BME280;1581;51.568;6.998;2023-04-25T07:35:01;100547.31;;;10.16;100.00
3142;BME280;1581;51.568;6.998;2023-04-25T07:37:29;100548.03;;;10.03;100.00
3142;BME280;1581;51.568;6.998;2023-04-25T07:39:58;100548.03;;;10.24;100.00
3142;BME280;1581;51.568;6.998;2023-04-25T07:42:26;100548.59;;;9.49;100.00
3142;BME280;1581;51.568;6.998;2023-04-25T07:44:54;100547.31;;;9.45;100.00
3142;BME280;1581;51.568;6.998;2023-04-25T07:47:22;100550.94;;;9.73;100.00
3142;BME280;1581;51.568;6.998;2023-04-25T07:49:50;100556.66;;;9.55;100.00
3142;BME280;1581;51.568;6.998;2023-04-25T07:52:18;100560.41;;;9.61;100.00
3142;BME280;1581;51.568;6.998;2023-04-25T07:54:47;100555.25;;;9.59;100.00
3142;BME280;1581;51.568;6.998;2023-04-25T07:57:17;100563.50;;;10.14;100.00
3142;BME280;1581;51.568;6.998;2023-04-25T07:59:46;100557.63;;;10.67;100.00
3142;BME280;1581;51.568;6.998;2023-04-25T08:02:13;100571.03;;;10.80;100.00
3142;BME280;1581;51.568;6.998;2023-04-25T08:04:41;100575.69;;;10.71;96.67
3142;BME280;1581;51.568;6.998;2023-04-25T08:07:09;100575.88;;;10.97;96.46
3142;BME280;1581;51.568;6.998;2023-04-25T08:09:37;100579.66;;;11.09;97.46
3142;BME280;1581;51.568;6.998;2023-04-25T08:12:05;100596.81;;;11.00;93.70
3142;BME280;1581;51.568;6.998;2023-04-25T08:14:35;100601.03;;;11.15;94.21
3142;BME280;1581;51.568;6.998;2023-04-25T08:17:06;100608.94;;;10.33;94.84
3142;BME280;1581;51.568;6.998;2023-04-25T08:19:34;100598.63;;;11.27;93.68
3142;BME280;1581;51.568;6.998;2023-04-25T08:22:02;100603.56;;;11.30;93.08
3142;BME280;1581;51.568;6.998;2023-04-25T08:24:30;100607.78;;;11.45;88.36
3142;BME280;1581;51.568;6.998;2023-04-25T08:26:58;100603.06;;;11.13;90.45
3142;BME280;1581;51.568;6.998;2023-04-25T08:29:26;100604.81;;;11.00;91.83
3142;BME280;1581;51.568;6.998;2023-04-25T08:31:56;100613.09;;;10.57;90.53
3142;BME280;1581;51.568;6.998;2023-04-25T08:34:24;100614.84;;;10.98;91.83
3142;BME280;1581;51.568;6.998;2023-04-25T08:36:52;100615.09;;;11.37;90.59
3142;BME280;1581;51.568;6.998;2023-04-25T08:39:19;100614.47;;;11.69;88.74
3142;BME280;1581;51.568;6.998;2023-04-25T08:41:48;100620.47;;;11.43;89.34
3142;BME280;1581;51.568;6.998;2023-04-25T08:44:17;100618.97;;;11.62;88.08
3142;BME280;1581;51.568;6.998;2023-04-25T08:46:47;100638.53;;;12.28;84.00
3142;BME280;1581;51.568;6.998;2023-04-25T08:49:19;100638.00;;;11.93;80.18
3142;BME280;1581;51.568;6.998;2023-04-25T08:51:47;100639.44;;;11.95;79.08
3142;BME280;1581;51.568;6.998;2023-04-25T08:54:17;100634.34;;;12.06;80.55
3142;BME280;1581;51.568;6.998;2023-04-25T08:56:48;100644.22;;;12.06;77.44
3142;BME280;1581;51.568;6.998;2023-04-25T08:59:17;100641.44;;;11.46;77.87
3142;BME280;1581;51.568;6.998;2023-04-25T09:01:45;100644.75;;;11.89;80.22
3142;BME280;1581;51.568;6.998;2023-04-25T09:04:15;100655.44;;;12.55;76.65
3142;BME280;1581;51.568;6.998;2023-04-25T09:06:44;100657.06;;;12.49;72.98
3142;BME280;1581;51.568;6.998;2023-04-25T09:09:12;100669.81;;;12.54;74.64
3142;BME280;1581;51.568;6.998;2023-04-25T09:11:40;100672.31;;;12.62;70.49
3142;BME280;1581;51.568;6.998;2023-04-25T09:14:13;100669.41;;;12.50;72.58
3142;BME280;1581;51.568;6.998;2023-04-25T09:17:02;100671.50;;;12.61;68.77
3142;BME280;1581;51.568;6.998;2023-04-25T09:19:35;100675.19;;;12.73;74.39
3142;BME280;1581;51.568;6.998;2023-04-25T09:22:07;100669.75;;;12.21;67.92
3142;BME280;1581;51.568;6.998;2023-04-25T09:24:37;100678.41;;;12.36;63.95
3142;BME280;1581;51.568;6.998;2023-04-25T09:27:06;100674.66;;;12.24;64.74
3142;BME280;1581;51.568;6.998;2023-04-25T09:29:37;100685.22;;;12.45;65.23
3142;BME280;1581;51.568;6.998;2023-04-25T09:32:16;100689.75;;;11.92;69.00
3142;BME280;1581;51.568;6.998;2023-04-25T09:34:46;100677.22;;;12.52;68.22
3142;BME280;1581;51.568;6.998;2023-04-25T09:37:20;100677.25;;;12.58;65.88
3142;BME280;1581;51.568;6.998;2023-04-25T09:39:49;100680.97;;;12.77;63.83
3142;BME280;1581;51.568;6.998;2023-04-25T09:42:18;100679.44;;;12.35;56.39
3142;BME280;1581;51.568;6.998;2023-04-25T09:44:54;100691.53;;;12.25;59.41
3142;BME280;1581;51.568;6.998;2023-04-25T09:47:24;100692.63;;;12.37;60.09
3142;BME280;1581;51.568;6.998;2023-04-25T09:49:53;100702.03;;;13.12;57.63
3142;BME280;1581;51.568;6.998;2023-04-25T09:52:24;100697.06;;;12.96;54.50
3142;BME280;1581;51.568;6.998;2023-04-25T09:54:53;100695.00;;;13.50;53.28
3142;BME280;1581;51.568;6.998;2023-04-25T09:57:22;100695.44;;;13.21;51.90
3142;BME280;1581;51.568;6.998;2023-04-25T09:59:53;100697.59;;;12.53;54.23
3142;BME280;1581;51.568;6.998;2023-04-25T10:02:24;100709.22;;;11.52;54.83
3142;BME280;1581;51.568;6.998;2023-04-25T10:04:53;100700.28;;;12.00;59.55
3142;BME280;1581;51.568;6.998;2023-04-25T10:07:26;100705.78;;;12.45;56.74
3142;BME280;1581;51.568;6.998;2023-04-25T10:10:00;100709.53;;;12.57;56.70
3142;BME280;1581;51.568;6.998;2023-04-25T10:12:30;100719.50;;;12.29;58.98
3142;BME280;1581;51.568;6.998;2023-04-25T10:14:59;100715.88;;;12.49;57.17
3142;BME280;1581;51.568;6.998;2023-04-25T10:17:27;100710.56;;;12.75;56.85
3142;BME280;1581;51.568;6.998;2023-04-25T10:19:55;100714.00;;;12.37;59.79
3142;BME280;1581;51.568;6.998;2023-04-25T10:22:31;100718.13;;;11.93;63.20
3142;BME280;1581;51.568;6.998;2023-04-25T10:25:00;100737.59;;;11.32;58.23
3142;BME280;1581;51.568;6.998;2023-04-25T10:27:30;100734.03;;;10.98;60.35
3142;BME280;1581;51.568;6.998;2023-04-25T10:30:02;100746.56;;;10.83;67.48
3142;BME280;1581;51.568;6.998;2023-04-25T10:32:31;100753.59;;;10.69;78.60
3142;BME280;1581;51.568;6.998;2023-04-25T10:35:12;100749.69;;;10.51;82.59
3142;BME280;1581;51.568;6.998;2023-04-25T10:38:00;100760.44;;;10.57;89.43
3142;BME280;1581;51.568;6.998;2023-04-25T10:40:30;100763.22;;;10.49;88.46
3142;BME280;1581;51.568;6.998;2023-04-25T10:43:39;100775.41;;;10.09;96.03
3142;BME280;1581;51.568;6.998;2023-04-25T10:46:16;100775.03;;;10.12;96.66
3142;BME280;1581;51.568;6.998;2023-04-25T10:48:47;100771.69;;;9.95;97.44
3142;BME280;1581;51.568;6.998;2023-04-25T10:51:21;100772.53;;;9.96;95.28
3142;BME280;1581;51.568;6.998;2023-04-25T10:54:02;100772.34;;;10.26;96.21
3142;BME280;1581;51.568;6.998;2023-04-25T10:56:31;100777.19;;;10.51;92.45
3142;BME280;1581;51.568;6.998;2023-04-25T10:59:07;100768.50;;;10.64;91.40
3142;BME280;1581;51.568;6.998;2023-04-25T11:01:38;100766.19;;;10.96;91.52
3142;BME280;1581;51.568;6.998;2023-04-25T11:04:18;100767.91;;;11.04;86.39
3142;BME280;1581;51.568;6.998;2023-04-25T11:07:09;100767.03;;;11.45;80.67
3142;BME280;1581;51.568;6.998;2023-04-25T11:09:41;100767.50;;;12.09;74.51
3142;BME280;1581;51.568;6.998;2023-04-25T11:12:09;100764.06;;;12.82;70.36
3142;BME280;1581;51.568;6.998;2023-04-25T11:14:38;100765.81;;;13.28;65.98
3142;BME280;1581;51.568;6.998;2023-04-25T11:17:06;100769.06;;;13.88;61.10
3142;BME280;1581;51.568;6.998;2023-04-25T11:19:35;100780.13;;;14.37;53.67
3142;BME280;1581;51.568;6.998;2023-04-25T11:22:04;100779.22;;;15.24;53.55
3142;BME280;1581;51.568;6.998;2023-04-25T11:24:34;100775.66;;;16.03;51.31
3142;BME280;1581;51.568;6.998;2023-04-25T11:27:04;100779.91;;;16.82;48.36
3142;BME280;1581;51.568;6.998;2023-04-25T11:29:34;100782.47;;;19.05;41.42
3142;BME280;1581;51.568;6.998;2023-04-25T11:32:02;100790.34;;;23.04;33.25
3142;BME280;1581;51.568;6.998;2023-04-25T11:34:31;100797.84;;;25.67;29.37
3142;BME280;1581;51.568;6.998;2023-04-25T11:37:00;100807.44;;;26.50;28.06
3142;BME280;1581;51.568;6.998;2023-04-25T11:39:28;100818.19;;;27.67;25.50
3142;BME280;1581;51.568;6.998;2023-04-25T11:41:56;100822.00;;;29.23;24.08
3142;BME280;1581;51.568;6.998;2023-04-25T11:44:26;100829.34;;;30.46;23.28
3142;BME280;1581;51.568;6.998;2023-04-25T11:46:54;100824.66;;;31.58;21.36
3142;BME280;1581;51.568;6.998;2023-04-25T11:49:22;100821.00;;;29.76;22.53
3142;BME280;1581;51.568;6.998;2023-04-25T11:51:52;100821.09;;;32.37;20.47
3142;BME280;1581;51.568;6.998;2023-04-25T11:54:20;100837.66;;;35.56;19.07
3142;BME280;1581;51.568;6.998;2023-04-25T11:56:50;100819.34;;;29.18;20.78
3142;BME280;1581;51.568;6.998;2023-04-25T11:59:25;100787.44;;;23.45;25.93
3142;BME280;1581;51.568;6.998;2023-04-25T12:01:54;100785.63;;;21.51;28.20
3142;BME280;1581;51.568;6.998;2023-04-25T12:04:23;100798.91;;;25.71;25.08
3142;BME280;1581;51.568;6.998;2023-04-25T12:06:52;100810.06;;;27.75;22.74
3142;BME280;1581;51.568;6.998;2023-04-25T12:09:27;100792.59;;;22.46;27.17
3142;BME280;1581;51.568;6.998;2023-04-25T12:11:57;100787.38;;;18.18;33.20
3142;BME280;1581;51.568;6.998;2023-04-25T12:14:31;100786.31;;;17.39;34.70
3142;BME280;1581;51.568;6.998;2023-04-25T12:17:02;100793.53;;;16.33;37.67
3142;BME280;1581;51.568;6.998;2023-04-25T12:19:33;100798.00;;;15.30;39.63
3142;BME280;1581;51.568;6.998;2023-04-25T12:22:02;100796.31;;;14.61;42.36
3142;BME280;1581;51.568;6.998;2023-04-25T12:24:34;100795.38;;;14.36;45.30
3142;BME280;1581;51.568;6.998;2023-04-25T12:27:03;100792.81;;;13.72;47.20
3142;BME280;1581;51.568;6.998;2023-04-25T12:29:35;100798.50;;;12.91;50.00
3142;BME280;1581;51.568;6.998;2023-04-25T12:32:03;100798.13;;;12.13;56.54
3142;BME280;1581;51.568;6.998;2023-04-25T12:34:32;100786.84;;;12.11;58.50
3142;BME280;1581;51.568;6.998;2023-04-25T12:37:01;100800.91;;;11.93;62.59
3142;BME280;1581;51.568;6.998;2023-04-25T12:39:30;100794.88;;;11.84;62.87
3142;BME280;1581;51.568;6.998;2023-04-25T12:41:58;100798.91;;;12.41;62.59
3142;BME280;1581;51.568;6.998;2023-04-25T12:44:27;100805.19;;;11.94;64.53
3142;BME280;1581;51.568;6.998;2023-04-25T12:46:57;100807.72;;;12.88;61.32
3142;BME280;1581;51.568;6.998;2023-04-25T12:49:25;100816.09;;;13.45;56.97
3142;BME280;1581;51.568;6.998;2023-04-25T12:51:53;100810.94;;;13.63;54.39
3142;BME280;1581;51.568;6.998;2023-04-25T12:54:21;100826.66;;;14.49;51.44
3142;BME280;1581;51.568;6.998;2023-04-25T12:56:49;100817.88;;;13.06;52.41
3142;BME280;1581;51.568;6.998;2023-04-25T12:59:17;100818.06;;;13.04;54.16
3142;BME280;1581;51.568;6.998;2023-04-25T13:01:46;100814.84;;;12.62;56.12
3142;BME280;1581;51.568;6.998;2023-04-25T13:04:15;100813.56;;;12.11;59.25
3142;BME280;1581;51.568;6.998;2023-04-25T13:06:43;100814.91;;;12.01;59.67
3142;BME280;1581;51.568;6.998;2023-04-25T13:09:11;100815.81;;;12.14;62.44
3142;BME280;1581;51.568;6.998;2023-04-25T13:11:39;100817.09;;;11.91;64.38
3142;BME280;1581;51.568;6.998;2023-04-25T13:14:07;100818.81;;;12.39;63.84
3142;BME280;1581;51.568;6.998;2023-04-25T13:16:35;100810.06;;;12.17;63.24
3142;BME280;1581;51.568;6.998;2023-04-25T13:19:05;100808.91;;;12.26;60.83
3142;BME280;1581;51.568;6.998;2023-04-25T13:21:38;100819.13;;;13.10;60.18